createdAt,value
2019-05-14T00:02:02.859Z,79.46
2019-05-14T00:04:34.560Z,79.77
2019-05-14T00:07:05.803Z,78.65
2019-05-14T00:09:37.883Z,76.85
2019-05-14T00:12:11.386Z,77.26
2019-05-14T00:14:43.822Z,78.13
2019-05-14T00:17:14.988Z,78.14
2019-05-14T00:19:46.083Z,74.71
2019-05-14T00:22:17.660Z,77.10
2019-05-14T00:24:51.796Z,74.53
2019-05-14T00:27:22.243Z,74.12
2019-05-14T00:29:53.525Z,74.24
2019-05-14T00:32:25.048Z,73.57
2019-05-14T00:34:56.600Z,73.71
2019-05-14T00:37:27.879Z,71.66
2019-05-14T00:40:01.133Z,71.41
2019-05-14T00:42:31.972Z,70.85
2019-05-14T00:45:03.287Z,69.64
2019-05-14T00:47:34.952Z,69.13
2019-05-14T00:50:11.113Z,68.32
2019-05-14T00:52:46.107Z,68.68
2019-05-14T00:55:15.018Z,68.48
2019-05-14T00:57:46.427Z,68.11
2019-05-14T01:00:19.166Z,68.71
2019-05-14T01:02:51.831Z,68.37
2019-05-14T01:05:23.226Z,68.46
2019-05-14T01:07:55.294Z,68.56
2019-05-14T01:10:26.477Z,69.06
2019-05-14T01:12:57.482Z,69.05
2019-05-14T01:15:29.043Z,69.92
2019-05-14T01:18:02.245Z,70.33
2019-05-14T01:20:33.732Z,70.55
2019-05-14T01:23:05.375Z,71.17
2019-05-14T01:25:36.669Z,71.39
2019-05-14T01:28:07.898Z,71.80
2019-05-14T01:30:41.130Z,71.74
2019-05-14T01:33:12.563Z,72.28
2019-05-14T01:35:43.882Z,72.61
2019-05-14T01:38:15.473Z,72.92
2019-05-14T01:40:46.903Z,73.55
2019-05-14T01:43:18.467Z,73.70
2019-05-14T01:45:52.191Z,73.98
2019-05-14T01:48:22.798Z,74.67
2019-05-14T01:50:54.570Z,74.31
2019-05-14T01:53:25.773Z,74.56
2019-05-14T01:55:56.908Z,74.76
2019-05-14T01:58:28.141Z,75.14
2019-05-14T02:01:01.739Z,75.52
2019-05-14T02:03:32.505Z,75.96
2019-05-14T02:06:04.154Z,75.98
2019-05-14T02:08:35.783Z,76.14
2019-05-14T02:11:06.779Z,76.31
2019-05-14T02:13:38.057Z,76.44
2019-05-14T02:16:12.836Z,76.39
2019-05-14T02:18:42.857Z,76.68
2019-05-14T02:21:14.521Z,76.51
2019-05-14T02:23:45.816Z,76.57
2019-05-14T02:26:17.351Z,76.54
2019-05-14T02:28:51.221Z,76.62
2019-05-14T02:31:21.624Z,76.54
2019-05-14T02:33:53.183Z,76.93
2019-05-14T02:36:24.195Z,77.18
2019-05-14T02:38:55.601Z,77.81
2019-05-14T02:41:29.791Z,78.14
2019-05-14T02:43:59.607Z,78.22
2019-05-14T02:46:31.280Z,78.99
2019-05-14T02:49:03.247Z,79.68
2019-05-14T02:51:38.914Z,79.65
2019-05-14T02:54:10.208Z,80.03
2019-05-14T02:56:41.721Z,80.04
2019-05-14T02:59:13.154Z,80.46
2019-05-14T03:01:44.438Z,80.63
2019-05-14T03:04:15.896Z,80.77
2019-05-14T03:06:49.894Z,80.82
2019-05-14T03:09:20.793Z,81.15
2019-05-14T03:11:51.999Z,81.36
2019-05-14T03:14:23.038Z,81.33
2019-05-14T03:16:54.194Z,81.46
2019-05-14T03:19:25.632Z,81.12
2019-05-14T03:21:59.961Z,81.21
2019-05-14T03:24:29.779Z,81.50
2019-05-14T03:27:00.936Z,81.75
2019-05-14T03:29:33.315Z,82.22
2019-05-14T03:32:05.040Z,82.45
2019-05-14T03:34:42.879Z,82.72
2019-05-14T03:37:12.754Z,82.52
2019-05-14T03:39:44.307Z,82.74
2019-05-14T03:42:19.025Z,82.88
2019-05-14T03:44:49.156Z,82.95
2019-05-14T03:47:21.041Z,83.13
2019-05-14T03:49:54.688Z,82.96
2019-05-14T03:52:29.221Z,83.35
2019-05-14T03:55:04.429Z,83.29
2019-05-14T03:57:34.403Z,83.28
2019-05-14T04:00:10.320Z,83.62
2019-05-14T04:02:40.881Z,83.63
2019-05-14T04:05:12.380Z,83.71
2019-05-14T04:07:49.924Z,83.60
2019-05-14T04:10:19.729Z,83.37
2019-05-14T04:12:54.143Z,83.80
2019-05-14T04:15:30.139Z,83.91
2019-05-14T04:18:02.483Z,83.96
2019-05-14T04:20:39.113Z,83.87
2019-05-14T04:23:10.427Z,83.57
2019-05-14T04:25:43.159Z,83.50
2019-05-14T04:28:19.314Z,83.29
2019-05-14T04:30:54.429Z,82.99
2019-05-14T04:33:30.379Z,83.10
2019-05-14T04:36:00.829Z,82.40
2019-05-14T04:38:32.828Z,82.13
2019-05-14T04:41:04.557Z,82.10
2019-05-14T04:43:40.025Z,82.46
2019-05-14T04:46:11.247Z,82.18
2019-05-14T04:48:44.331Z,81.58
2019-05-14T04:51:19.603Z,81.68
2019-05-14T04:53:50.425Z,81.92
2019-05-14T04:56:22.161Z,81.11
2019-05-14T04:58:53.517Z,81.06
2019-05-14T05:01:29.258Z,80.62
2019-05-14T05:03:59.414Z,80.33
2019-05-14T05:06:31.328Z,80.24
2019-05-14T05:09:02.880Z,79.75
2019-05-14T05:11:34.084Z,79.44
2019-05-14T05:14:08.601Z,79.38
2019-05-14T05:16:39.305Z,78.94
2019-05-14T05:19:10.852Z,78.41
2019-05-14T05:21:42.339Z,78.35
2019-05-14T05:24:13.993Z,77.92
2019-05-14T05:26:45.601Z,77.42
2019-05-14T05:29:18.625Z,77.33
2019-05-14T05:31:51.635Z,76.58
2019-05-14T05:34:24.131Z,76.42
2019-05-14T05:36:55.723Z,76.08
2019-05-14T05:39:28.266Z,75.75
2019-05-14T05:41:59.705Z,76.17
2019-05-14T05:44:31.017Z,76.13
2019-05-14T05:47:02.573Z,76.36
2019-05-14T05:49:33.780Z,75.85
2019-05-14T05:52:08.601Z,76.77
2019-05-14T05:54:39.563Z,76.17
2019-05-14T05:57:11.420Z,75.17
2019-05-14T05:59:42.446Z,75.07
2019-05-14T06:02:14.058Z,75.08
2019-05-14T06:04:47.950Z,74.94
2019-05-14T06:07:20.457Z,74.54
2019-05-14T06:09:51.718Z,75.20
2019-05-14T06:12:23.284Z,75.20
2019-05-14T06:14:55.296Z,76.23
2019-05-14T06:17:28.520Z,76.45
2019-05-14T06:20:04.520Z,77.86
2019-05-14T06:22:53.180Z,79.27
2019-05-14T06:25:40.077Z,80.28
2019-05-14T06:28:11.390Z,82.69
2019-05-14T06:30:48.361Z,82.58
2019-05-14T06:33:21.938Z,83.61
2019-05-14T06:35:53.440Z,84.80
2019-05-14T06:38:24.760Z,84.27
2019-05-14T06:40:56.193Z,85.92
2019-05-14T06:43:28.738Z,86.53
2019-05-14T06:46:00.680Z,85.75
2019-05-14T06:48:34.807Z,85.69
2019-05-14T06:51:04.792Z,85.76
2019-05-14T06:53:39.113Z,85.73
2019-05-14T06:56:10.027Z,84.28
2019-05-14T06:58:42.418Z,84.28
2019-05-14T07:01:13.256Z,84.92
2019-05-14T07:03:44.747Z,83.96
2019-05-14T07:06:18.496Z,83.91
2019-05-14T07:08:52.638Z,83.16
2019-05-14T07:11:23.805Z,84.56
2019-05-14T07:13:55.197Z,85.51
2019-05-14T07:16:28.676Z,83.04
2019-05-14T07:19:01.026Z,84.16
2019-05-14T07:21:32.886Z,84.31
2019-05-14T07:24:05.707Z,85.31
2019-05-14T07:26:39.005Z,85.91
2019-05-14T07:29:11.527Z,85.91
2019-05-14T07:31:43.701Z,86.50
2019-05-14T07:34:15.080Z,85.29
2019-05-14T07:36:49.118Z,86.29
2019-05-14T07:39:20.812Z,86.26
2019-05-14T07:41:53.913Z,85.78
2019-05-14T07:44:26.791Z,86.47
2019-05-14T07:46:58.932Z,86.27
2019-05-14T07:49:30.516Z,87.06
2019-05-14T07:52:04.893Z,87.64
2019-05-14T07:54:38.862Z,87.78
2019-05-14T07:57:09.968Z,88.42
2019-05-14T07:59:41.933Z,88.08
2019-05-14T08:02:13.687Z,87.95
2019-05-14T08:04:45.451Z,87.29
2019-05-14T08:07:18.429Z,88.15
2019-05-14T08:09:51.401Z,87.41
2019-05-14T08:12:22.990Z,88.22
2019-05-14T08:15:13.457Z,87.77
2019-05-14T08:17:30.739Z,87.11
2019-05-14T08:20:05.134Z,86.47
2019-05-14T08:22:39.160Z,87.18
2019-05-14T08:25:12.937Z,87.68
2019-05-14T08:27:48.178Z,88.57
2019-05-14T08:30:20.493Z,87.87
2019-05-14T08:32:53.071Z,86.14
2019-05-14T08:35:24.809Z,87.08
2019-05-14T08:38:07.774Z,87.16
2019-05-14T08:40:31.576Z,87.04
2019-05-14T08:43:03.941Z,87.16
2019-05-14T08:45:38.883Z,85.28
2019-05-14T08:48:12.213Z,85.92
2019-05-14T08:50:45.269Z,85.26
2019-05-14T08:53:18.750Z,85.19
2019-05-14T08:55:51.826Z,85.31
2019-05-14T08:58:23.308Z,84.56
2019-05-14T09:00:58.361Z,81.68
2019-05-14T09:03:29.116Z,81.54
2019-05-14T09:06:01.189Z,80.07
2019-05-14T09:08:33.909Z,81.45
2019-05-14T09:11:06.366Z,81.05
2019-05-14T09:13:38.481Z,78.55
2019-05-14T09:16:10.719Z,77.57
2019-05-14T09:18:43.687Z,79.24
2019-05-14T09:21:16.781Z,76.77
2019-05-14T09:23:49.759Z,75.58
2019-05-14T09:26:22.585Z,76.59
2019-05-14T09:28:53.876Z,75.55
2019-05-14T09:31:25.514Z,75.98
2019-05-14T09:33:58.506Z,74.45
2019-05-14T09:36:30.519Z,74.40
2019-05-14T09:39:01.862Z,71.16
2019-05-14T09:41:34.220Z,71.69
2019-05-14T09:44:09.159Z,72.59
2019-05-14T09:46:40.484Z,70.08
2019-05-14T09:49:12.869Z,67.58
2019-05-14T09:51:45.139Z,66.12
2019-05-14T09:54:20.459Z,67.54
2019-05-14T09:56:52.040Z,66.89
2019-05-14T09:59:24.277Z,66.48
2019-05-14T10:01:58.570Z,64.83
2019-05-14T10:04:31.022Z,64.75
2019-05-14T10:07:04.310Z,60.68
2019-05-14T10:09:35.414Z,61.07
2019-05-14T10:12:08.916Z,62.58
2019-05-14T10:14:42.446Z,59.43
2019-05-14T10:17:14.096Z,61.46
2019-05-14T10:19:45.840Z,60.47
2019-05-14T10:22:19.719Z,56.45
2019-05-14T10:24:52.404Z,56.62
2019-05-14T10:27:24.636Z,55.61
2019-05-14T10:29:58.880Z,55.97
2019-05-14T10:32:31.874Z,56.75
2019-05-14T10:35:03.949Z,57.44
2019-05-14T10:37:35.920Z,55.48
2019-05-14T10:40:10.474Z,54.58
2019-05-14T10:42:42.951Z,55.67
2019-05-14T10:45:15.262Z,57.61
2019-05-14T10:47:49.416Z,56.05
2019-05-14T10:50:20.575Z,57.29
2019-05-14T10:52:52.838Z,54.38
2019-05-14T10:55:27.804Z,56.26
2019-05-14T10:57:58.687Z,56.23
2019-05-14T11:00:34.102Z,54.34
2019-05-14T11:03:07.870Z,53.26
2019-05-14T11:05:41.587Z,53.77
2019-05-14T11:08:18.914Z,53.98
2019-05-14T11:10:50.862Z,51.39
2019-05-14T11:13:22.047Z,50.11
2019-05-14T11:15:54.236Z,51.95
2019-05-14T11:18:25.136Z,49.92
2019-05-14T11:21:24.816Z,51.40
2019-05-14T11:23:51.321Z,51.49
2019-05-14T11:26:24.976Z,50.11
2019-05-14T11:28:58.575Z,51.51
2019-05-14T11:31:29.449Z,50.87
2019-05-14T11:34:01.435Z,51.02
2019-05-14T11:36:32.349Z,49.03
2019-05-14T11:39:04.033Z,49.32
2019-05-14T11:41:34.974Z,49.62
2019-05-14T11:44:08.924Z,48.40
2019-05-14T11:46:47.165Z,47.16
2019-05-14T11:49:11.724Z,48.11
2019-05-14T11:54:23.015Z,46.10
2019-05-14T11:56:58.888Z,45.55
2019-05-14T11:59:30.366Z,48.13
2019-05-14T12:02:01.872Z,47.05
2019-05-14T12:04:32.954Z,47.61
2019-05-14T12:07:09.624Z,47.72
2019-05-14T12:09:41.335Z,46.71
2019-05-14T12:12:12.798Z,45.92
2019-05-14T12:14:43.605Z,45.88
2019-05-14T12:17:20.606Z,46.19
2019-05-14T12:19:52.436Z,46.61
2019-05-14T12:22:23.134Z,47.45
2019-05-14T12:24:54.391Z,45.17
2019-05-14T12:27:25.488Z,45.65
2019-05-14T12:29:59.895Z,44.35
2019-05-14T12:32:29.740Z,43.67
2019-05-14T12:35:00.692Z,45.48
2019-05-14T12:37:31.847Z,43.13
2019-05-14T12:40:02.063Z,43.37
2019-05-14T12:42:33.467Z,42.49
2019-05-14T12:45:04.711Z,43.25
2019-05-14T12:47:34.594Z,43.42
2019-05-14T12:50:14.725Z,44.23
2019-05-14T12:52:48.555Z,42.26
2019-05-14T12:55:24.274Z,43.32
2019-05-14T12:57:59.758Z,44.73
2019-05-14T13:00:32.752Z,44.34
2019-05-14T13:03:09.346Z,45.02
2019-05-14T13:05:39.668Z,44.00
2019-05-14T13:08:11.454Z,43.55
2019-05-14T13:10:49.241Z,43.18
2019-05-14T13:13:30.234Z,44.34
2019-05-14T13:16:04.360Z,43.91
2019-05-14T13:18:33.897Z,44.46
2019-05-14T13:21:05.468Z,44.13
2019-05-14T13:23:38.391Z,44.37
2019-05-14T13:26:10.954Z,44.15
2019-05-14T13:28:43.712Z,43.27
2019-05-14T13:31:20.806Z,41.77
2019-05-14T13:33:55.359Z,41.60
2019-05-14T13:36:28.587Z,42.70
2019-05-14T13:38:59.766Z,41.71
2019-05-14T13:41:30.906Z,44.93
2019-05-14T13:44:17.306Z,43.62
2019-05-14T13:46:38.650Z,43.19
2019-05-14T13:49:09.239Z,43.32
2019-05-14T13:51:39.941Z,42.75
2019-05-14T13:54:12.265Z,43.03
2019-05-14T13:56:44.090Z,42.97
2019-05-14T13:59:15.222Z,43.31
2019-05-14T14:01:48.487Z,43.72
2019-05-14T14:04:18.888Z,41.90
2019-05-14T14:06:49.871Z,42.19
2019-05-14T14:09:20.945Z,41.71
2019-05-14T14:11:51.812Z,42.71
2019-05-14T14:14:22.828Z,42.97
2019-05-14T14:16:53.507Z,41.54
2019-05-14T14:19:24.364Z,41.50
2019-05-14T14:21:55.153Z,42.68
2019-05-14T14:24:25.857Z,41.17
2019-05-14T14:26:58.338Z,41.77
2019-05-14T14:29:29.006Z,40.48
2019-05-14T14:31:59.714Z,40.28
2019-05-14T14:34:30.447Z,39.64
2019-05-14T14:37:01.447Z,40.03
2019-05-14T14:39:32.338Z,39.10
2019-05-14T14:42:03.087Z,39.79
2019-05-14T14:44:33.900Z,41.07
2019-05-14T14:47:04.691Z,40.88
2019-05-14T14:49:35.813Z,41.91
2019-05-14T14:52:11.844Z,40.39
2019-05-14T14:54:39.281Z,39.50
2019-05-14T14:57:10.909Z,39.39
2019-05-14T14:59:42.249Z,39.14
2019-05-14T15:02:12.908Z,40.07
2019-05-14T15:04:43.733Z,40.22
2019-05-14T15:07:14.847Z,40.19
2019-05-14T15:09:48.538Z,40.34
2019-05-14T15:12:19.974Z,40.68
2019-05-14T15:14:50.900Z,40.67
2019-05-14T15:17:21.645Z,40.53
2019-05-14T15:19:52.545Z,40.70
2019-05-14T15:22:23.546Z,40.63
2019-05-14T15:24:59.256Z,39.79
2019-05-14T15:27:33.080Z,39.88
2019-05-14T15:30:06.958Z,40.00
2019-05-14T15:32:41.047Z,39.25
2019-05-14T15:35:14.232Z,40.96
2019-05-14T15:37:45.167Z,40.77
2019-05-14T15:40:21.952Z,41.08
2019-05-14T15:42:49.720Z,42.09
2019-05-14T15:45:21.231Z,43.06
2019-05-14T15:48:01.894Z,42.63
2019-05-14T15:50:38.891Z,43.32
2019-05-14T15:53:11.265Z,42.54
2019-05-14T15:55:46.174Z,43.49
2019-05-14T15:58:21.553Z,42.76
2019-05-14T16:00:54.668Z,42.80
2019-05-14T16:03:31.367Z,42.30
2019-05-14T16:06:09.394Z,41.94
2019-05-14T16:08:40.797Z,43.97
2019-05-14T16:11:11.743Z,45.24
2019-05-14T16:13:56.035Z,46.40
2019-05-14T16:16:40.775Z,46.86
2019-05-14T16:19:20.275Z,47.79
2019-05-14T16:21:52.485Z,48.95
2019-05-14T16:24:25.107Z,49.35
2019-05-14T16:27:00.136Z,50.10
2019-05-14T16:29:45.472Z,49.14
2019-05-14T16:32:25.396Z,49.31
2019-05-14T16:35:03.569Z,49.46
2019-05-14T16:37:39.269Z,50.81
2019-05-14T16:40:13.760Z,49.46
2019-05-14T16:42:48.482Z,48.69
2019-05-14T16:45:20.109Z,47.86
2019-05-14T16:47:54.856Z,47.91
2019-05-14T16:50:28.635Z,48.01
2019-05-14T16:53:02.059Z,48.84
2019-05-14T16:55:38.400Z,48.46
2019-05-14T16:58:13.026Z,47.94
2019-05-14T17:00:58.815Z,48.28
2019-05-14T17:03:41.118Z,49.08
2019-05-14T17:06:13.154Z,48.39
2019-05-14T17:08:45.563Z,48.36
2019-05-14T17:11:18.231Z,48.04
2019-05-14T17:13:50.067Z,47.74
2019-05-14T17:16:22.828Z,47.67
2019-05-14T17:18:55.840Z,47.14
2019-05-14T17:21:29.850Z,47.10
2019-05-14T17:24:03.712Z,48.07
2019-05-14T17:26:35.310Z,47.92
2019-05-14T17:29:08.783Z,47.63
2019-05-14T17:31:40.567Z,46.62
2019-05-14T17:34:12.232Z,46.74
2019-05-14T17:36:44.388Z,47.37
2019-05-14T17:39:16.157Z,46.47
2019-05-14T17:41:49.456Z,46.58
2019-05-14T17:44:20.868Z,46.61
2019-05-14T17:46:52.540Z,47.01
2019-05-14T17:49:24.238Z,47.67
2019-05-14T17:52:01.466Z,48.13
2019-05-14T17:54:55.332Z,49.11
2019-05-14T17:57:37.937Z,47.92
2019-05-14T18:00:09.750Z,47.57
2019-05-14T18:02:51.722Z,47.51
2019-05-14T18:05:30.297Z,47.50
2019-05-14T18:08:01.918Z,48.05
2019-05-14T18:10:33.867Z,47.71
2019-05-14T18:13:08.875Z,47.87
2019-05-14T18:15:39.451Z,48.59
2019-05-14T18:18:11.420Z,48.30
2019-05-14T18:21:09.383Z,48.84
2019-05-14T18:24:13.564Z,48.85
2019-05-14T18:27:15.403Z,49.71
2019-05-14T18:29:59.284Z,48.60
2019-05-14T18:32:33.417Z,48.49
2019-05-14T18:35:14.654Z,48.36
2019-05-14T18:37:56.826Z,48.72
2019-05-14T18:40:31.946Z,48.81
2019-05-14T18:43:15.101Z,48.35
2019-05-14T18:46:18.965Z,48.13
2019-05-14T18:49:23.650Z,48.15
2019-05-14T18:52:25.710Z,48.91
2019-05-14T18:55:30.523Z,48.93
2019-05-14T18:58:20.747Z,49.44
2019-05-14T19:01:28.855Z,49.41
2019-05-14T19:04:43.389Z,50.03
2019-05-14T19:07:20.359Z,49.85
2019-05-14T19:09:53.136Z,50.48
2019-05-14T19:12:28.970Z,50.72
2019-05-14T19:15:00.786Z,50.94
2019-05-14T19:17:32.952Z,50.92
2019-05-14T19:20:08.450Z,50.81
2019-05-14T19:22:43.626Z,50.81
2019-05-14T19:25:18.575Z,51.42
2019-05-14T19:27:51.570Z,50.93
2019-05-14T19:30:25.782Z,50.27
2019-05-14T19:32:58.382Z,50.14
2019-05-14T19:35:31.347Z,49.99
2019-05-14T19:38:08.771Z,49.91
2019-05-14T19:40:41.182Z,49.44
2019-05-14T19:43:13.584Z,50.15
2019-05-14T19:45:45.861Z,49.24
2019-05-14T19:48:21.700Z,49.48
2019-05-14T19:50:58.452Z,49.69
2019-05-14T19:53:31.762Z,49.76
2019-05-14T19:56:03.676Z,50.09
2019-05-14T19:58:41.789Z,49.55
2019-05-14T20:01:24.123Z,49.61
2019-05-14T20:04:00.403Z,49.97
2019-05-14T20:06:38.830Z,49.75
2019-05-14T20:09:28.088Z,50.49
2019-05-14T20:12:08.102Z,50.64
2019-05-14T20:14:48.857Z,50.30
2019-05-14T20:17:19.962Z,50.52
2019-05-14T20:19:52.508Z,50.40
2019-05-14T20:22:24.799Z,51.03
2019-05-14T20:24:56.359Z,51.30
2019-05-14T20:27:28.291Z,51.85
2019-05-14T20:30:01.219Z,51.54
2019-05-14T20:32:33.301Z,51.36
2019-05-14T20:35:09.154Z,51.38
2019-05-14T20:37:43.628Z,51.53
2019-05-14T20:40:15.520Z,51.34
2019-05-14T20:42:49.274Z,51.31
2019-05-14T20:45:21.041Z,51.05
2019-05-14T20:47:59.195Z,51.31
2019-05-14T20:50:38.403Z,51.10
2019-05-14T20:53:09.306Z,51.27
2019-05-14T20:55:41.393Z,51.95
2019-05-14T20:58:13.151Z,51.89
2019-05-14T21:00:44.857Z,52.19
2019-05-14T21:03:18.708Z,51.51
2019-05-14T21:05:50.088Z,51.99
2019-05-14T21:08:21.572Z,52.24
2019-05-14T21:10:53.417Z,52.06
2019-05-14T21:13:25.086Z,52.18
2019-05-14T21:15:56.366Z,52.56
2019-05-14T21:18:34.840Z,52.71
2019-05-14T21:21:00.463Z,53.11
2019-05-14T21:23:32.157Z,52.36
2019-05-14T21:26:04.704Z,52.54
2019-05-14T21:28:36.286Z,52.95
2019-05-14T21:31:10.219Z,52.87
2019-05-14T21:33:41.024Z,53.00
2019-05-14T21:36:13.152Z,53.47
2019-05-14T21:38:44.284Z,53.54
2019-05-14T21:41:20.146Z,53.90
2019-05-14T21:43:49.328Z,53.45
2019-05-14T21:46:20.731Z,53.14
2019-05-14T21:48:52.021Z,53.08
2019-05-14T21:51:23.527Z,53.42
2019-05-14T21:53:55.063Z,53.40
2019-05-14T21:56:29.017Z,53.28
2019-05-14T21:59:01.488Z,54.09
2019-05-14T22:01:33.771Z,54.09
2019-05-14T22:04:05.286Z,54.01
2019-05-14T22:06:37.870Z,53.54
2019-05-14T22:09:10.312Z,53.73
2019-05-14T22:11:41.611Z,53.74
2019-05-14T22:14:13.732Z,54.33
2019-05-14T22:16:45.324Z,54.18
2019-05-14T22:19:18.903Z,53.70
2019-05-14T22:21:50.217Z,53.23
2019-05-14T22:24:21.202Z,53.85
2019-05-14T22:26:52.716Z,54.39
2019-05-14T22:29:24.692Z,53.69
2019-05-14T22:31:58.592Z,53.13
2019-05-14T22:34:29.889Z,53.75
2019-05-14T22:37:01.353Z,53.59
2019-05-14T22:39:33.440Z,53.64
2019-05-14T22:42:05.045Z,53.15
2019-05-14T22:44:36.797Z,53.31
2019-05-14T22:47:08.419Z,53.64
2019-05-14T22:49:40.811Z,53.13
2019-05-14T22:52:12.321Z,53.54
2019-05-14T22:54:44.011Z,53.77
2019-05-14T22:57:15.371Z,53.70
2019-05-14T22:59:48.655Z,53.74
2019-05-14T23:02:20.932Z,54.05
2019-05-14T23:04:52.001Z,54.00
2019-05-14T23:07:23.379Z,53.92
2019-05-14T23:09:55.074Z,54.41
2019-05-14T23:12:28.721Z,54.56
2019-05-14T23:14:59.850Z,53.82
2019-05-14T23:17:30.800Z,53.92
2019-05-14T23:20:02.819Z,54.91
2019-05-14T23:22:34.259Z,54.21
2019-05-14T23:25:08.946Z,53.99
2019-05-14T23:27:40.773Z,54.78
2019-05-14T23:30:21.732Z,55.19
2019-05-14T23:32:53.604Z,55.68
2019-05-14T23:35:28.199Z,56.52
2019-05-14T23:37:58.809Z,56.64
2019-05-14T23:40:30.473Z,56.65
2019-05-14T23:43:01.746Z,56.57
2019-05-14T23:45:33.243Z,56.63
2019-05-14T23:48:04.826Z,56.20
2019-05-14T23:50:37.872Z,56.41
2019-05-14T23:53:09.566Z,56.76
2019-05-14T23:55:41.355Z,56.74
2019-05-14T23:58:12.516Z,55.67
